Impacts METAR Board
IDs:

KCVG - Cincinnati Intl, KY, US

Updated at: 1900 UTC 22 Sep 2018
Potential Impact None Slight Moderate High
Time 22/07Z 22/08Z 22/09Z 22/10Z 22/11Z 22/12Z 22/13Z 22/14Z 22/15Z 22/16Z 22/17Z 22/18Z 22/19Z
Temp67 65 64 63 63 62 63 64 64 63 63 62 62
Dewpt54 55 53 53 52 52 52 54 54 54 54 57 58
Altim30.16 30.17 30.18 30.19 30.20 30.22 30.21 30.22 30.23 30.24 30.23 30.21 30.20
VIS10 10 10 10 10 10 10 10 10 10 10 9 9
CIG200 200 200 49 49 180 190 180 160 120 90 110 100
CoverOVCOVCBKNBKNOVCOVCOVCOVCOVCBKNOVCOVCOVC
FltCatVFRVFRVFRVFRVFRVFRVFRVFRVFRVFRVFRVFRVFR
WX-----------------------RA-RA
WDir10302010404040406050304010
WSpd16 12 12 10 11 9 12 10 10 11 9 8 6
WGst25 -- -- -- -- -- -- -- -- -- -- -- --
Raw hourly METARs
KCVG 220652Z 01016G25KT 10SM FEW040 OVC200 19/12 A3016 RMK AO2 PK WND 03027/0638 SLP202 T01940122
KCVG 220752Z 03012KT 10SM OVC200 18/13 A3017 RMK AO2 SLP207 T01830128
KCVG 220852Z 02012KT 10SM BKN200 18/12 A3018 RMK AO2 SLP210 T01780117 51012
KCVG 220952Z 01010KT 10SM BKN049 BKN200 17/12 A3019 RMK AO2 SLP214 T01720117
KCVG 221052Z 04011KT 10SM OVC049 17/11 A3020 RMK AO2 SLP220 T01720111
KCVG 221152Z 04009KT 10SM BKN180 OVC250 17/11 A3022 RMK AO2 SLP225 T01670111 10206 20167 53013
KCVG 221252Z 04012KT 10SM BKN190 OVC250 17/11 A3021 RMK AO2 SLP223 BINOVC T01720111
KCVG 221352Z 04010KT 10SM BKN180 OVC250 18/12 A3022 RMK AO2 SLP225 T01780122
KCVG 221452Z 06010KT 10SM BKN160 OVC200 18/12 A3023 RMK AO2 SLP230 T01780122 53004
KCVG 221552Z 05011KT 10SM FEW070 SCT095 BKN120 17/12 A3024 RMK AO2 SLP232 T01720122
KCVG 221652Z 03009KT 10SM FEW055 BKN090 OVC110 17/12 A3023 RMK AO2 SLP231 T01720122
KCVG 221752Z 04008KT 9SM -RA OVC110 17/14 A3021 RMK AO2 RAB1653 SLP224 P0002 60002 T01670139 10178 20161 58006
KCVG 221852Z 01006KT 9SM -RA BKN100 OVC120 17/14 A3020 RMK AO2 SLP219 P0001 T01670144



Page loaded:  19:35 UTC  |   12:35 PM Pacific  |   01:35 PM Mountain  |   02:35 PM Central  |   03:35 PM Eastern

 

ADVISORIES

FORECASTS

FORECASTS

OBSERVATIONS

USER TOOLS

ABOUT US